Lower Mifflin, Pennsylvania
Current Conditions -  °F | °C
As of 6:56 PM on Wednesday 22 Oct 2014 (Local Time) from KCXY Reporting Station
Overcast Overcast  
Wind Chill: 54°   Ceiling: 2600
Heat Index: 54°   Visibility: 10mi
Dew Point: 43°   Wind: 12mph
Humidity: 66%   Direction: 350°N
Pressure: 29.98"   Gusts: 29mph
Location:  40.183°N, 77.4166°W
Report Text: KCXY 222256Z 35010G25KT 10SM OVC026 12/06 A2998 RMK AO2 PK WND 34028/2236 SLP152 T01220061
Loading
Personal Weather Stations






























Interactive Weather Map
Tropical Storm Tracking
New forecast layout! Learn more

10-Day Weather Forecast

Advertisements
Track Severe Weather on mobile